Main page
METAR-TAF:

METAR-TAF

Airports :

Kirkwall Airport

Kirkwall, Scotland

latitude: 58-57N, longitude: 002-54W, elevation: 21 m

Current weather observation

The report was made 19 minutes ago, at 13:20 UTC
Wind 9 kt from the South/Southeast, varying between East/Southeast and South
Temperature 11°C
Humidity 87%
Pressure 1025 hPa
Visibility: 7000 m
Scattered clouds at a height of 300 ft
Broken clouds at a height of 400 ft

METAR: EGPA 241320Z 16009KT 120V190 7000 SCT003 BKN004 11/09 Q1025

Time: 14:39 (13:39 UTC)

Forecast

The report was made 1 hour and 41 minutes ago, at 11:58 UTC
Forecast valid from 24 at 12 UTC to 24 at 21 UTC
Wind 12 kt from the South/Southeast
Visibility: 3000 m
Broken clouds at a height of 200 ft
mist
Temporary
from 24 at 12 UTC to 24 at 17 UTC
Visibility: 7000 m
Broken clouds at a height of 500 ft
Temporary
from 24 at 17 UTC to 24 at 21 UTC
Visibility: 1200 m
Broken clouds at a height of 100 ft

TAF: EGPA 241158Z 2412/2421 16012KT 3000 BR BKN002 TEMPO 2412/2417 7000 BKN005 TEMPO 2417/2421 1200 BKN001

Weather observations and forecasts of more than 4000 airports (METAR and TAF reports).

The available stations are represented by yellow and red dots on the map.

Hover mouse over dot to see the name of the station.

Then click to see weather observations and forecasts.

To change the map : click on the green buttons with a black cross to zoom in, on the green button with a dash to zoom out, or on the green arrows for adjacent maps.


METAR-TAF: